createdAt,value
2018-07-26T00:15:42.021Z,26.7
2018-07-26T00:32:36.721Z,26.4
2018-07-26T00:49:31.503Z,26.4
2018-07-26T01:06:25.860Z,26.1
2018-07-26T01:23:19.850Z,25.8
2018-07-26T01:40:13.566Z,25.8
2018-07-26T01:57:07.479Z,26.1
2018-07-26T02:14:01.667Z,26.1
2018-07-26T02:30:56.093Z,26.1
2018-07-26T02:47:50.267Z,26.1
2018-07-26T03:04:44.627Z,26.1
2018-07-26T03:21:39.159Z,26.1
2018-07-26T03:38:33.466Z,26.1
2018-07-26T03:55:27.847Z,26.1
2018-07-26T04:12:21.858Z,25.8
2018-07-26T04:29:16.081Z,26.1
2018-07-26T04:46:10.236Z,26.1
2018-07-26T04:52:55.806Z,25.4
2018-07-26T05:09:49.471Z,25.4
2018-07-26T05:26:42.565Z,25.4
2018-07-26T05:43:35.980Z,25.4
2018-07-26T06:00:29.446Z,25.4
2018-07-26T06:17:22.410Z,25.1
2018-07-26T06:34:15.884Z,25.1
2018-07-26T06:42:42.799Z,25.8
2018-07-26T06:59:37.240Z,26.1
2018-07-26T07:16:31.868Z,26.4
2018-07-26T07:33:26.399Z,26.4
2018-07-26T07:45:16.841Z,27.0
2018-07-26T08:02:12.485Z,27.4
2018-07-26T08:15:45.514Z,28.0
2018-07-26T08:32:42.167Z,28.3
2018-07-26T08:41:10.961Z,29.0
2018-07-26T08:54:45.149Z,29.3
2018-07-26T09:01:32.456Z,29.6
2018-07-26T09:08:19.916Z,29.6
2018-07-26T09:21:55.036Z,30.2
2018-07-26T09:32:06.769Z,30.6
2018-07-26T09:49:06.397Z,30.6
2018-07-26T09:55:54.365Z,30.9
2018-07-26T10:12:54.525Z,31.2
2018-07-26T10:29:54.823Z,31.2
2018-07-26T10:46:55.018Z,30.9
2018-07-26T11:03:55.121Z,30.9
2018-07-26T11:20:55.581Z,31.2
2018-07-26T11:37:56.343Z,31.5
2018-07-26T11:54:57.113Z,31.5
2018-07-26T12:11:58.121Z,31.8
2018-07-26T12:28:58.996Z,31.8
2018-07-26T12:46:00.160Z,31.8
2018-07-26T13:03:01.485Z,31.8
2018-07-26T13:20:02.663Z,31.8
2018-07-26T13:37:04.054Z,32.2
2018-07-26T13:54:05.500Z,32.2
2018-07-26T14:11:06.945Z,32.2
2018-07-26T14:28:08.551Z,32.2
2018-07-26T14:45:10.284Z,32.2
2018-07-26T14:51:59.032Z,32.5
2018-07-26T15:09:01.035Z,32.5
2018-07-26T15:24:20.825Z,32.5
2018-07-26T15:41:22.887Z,32.2
2018-07-26T15:51:35.540Z,32.2
2018-07-26T16:08:37.204Z,32.2
2018-07-26T16:25:38.589Z,32.2
2018-07-26T16:42:40.618Z,32.5
2018-07-26T16:59:42.860Z,32.8
2018-07-26T17:16:44.960Z,32.5
2018-07-26T17:33:47.178Z,32.5
2018-07-26T17:50:49.319Z,32.5
2018-07-26T18:07:51.421Z,32.2
2018-07-26T18:24:53.008Z,31.8
2018-07-26T18:41:54.481Z,31.5
2018-07-26T18:58:55.811Z,31.5
2018-07-26T19:15:56.988Z,31.2
2018-07-26T19:32:57.337Z,30.9
2018-07-26T19:49:57.666Z,30.6
2018-07-26T20:06:57.385Z,30.2
2018-07-26T20:23:56.915Z,30.2
2018-07-26T20:40:56.116Z,29.9
2018-07-26T20:57:55.186Z,29.6
2018-07-26T21:14:53.724Z,29.6
2018-07-26T21:31:51.626Z,29.3
2018-07-26T21:48:49.129Z,29.0
2018-07-26T22:05:46.464Z,29.0
2018-07-26T22:22:43.884Z,28.6
2018-07-26T22:39:40.449Z,28.6
2018-07-26T22:56:37.235Z,28.3
2018-07-26T23:13:34.044Z,28.6
2018-07-26T23:30:30.936Z,28.6
2018-07-26T23:47:27.769Z,28.3
